sensor_id;sensor_type;location;lat;lon;timestamp;P1;durP1;ratioP1;P2;durP2;ratioP2
82292;SDS011;71892;14.836;105.234;2023-10-08T00:00:04;5.88;;;1.63;;
82292;SDS011;71892;14.836;105.234;2023-10-08T00:02:50;4.97;;;1.70;;
82292;SDS011;71892;14.836;105.234;2023-10-08T00:05:17;8.90;;;1.55;;
82292;SDS011;71892;14.836;105.234;2023-10-08T00:07:44;4.63;;;1.20;;
82292;SDS011;71892;14.836;105.234;2023-10-08T00:10:11;6.90;;;1.30;;
82292;SDS011;71892;14.836;105.234;2023-10-08T00:12:38;6.90;;;1.40;;
82292;SDS011;71892;14.836;105.234;2023-10-08T00:15:05;3.78;;;1.08;;
82292;SDS011;71892;14.836;105.234;2023-10-08T00:17:35;7.07;;;1.23;;
82292;SDS011;71892;14.836;105.234;2023-10-08T00:20:02;3.47;;;1.10;;
82292;SDS011;71892;14.836;105.234;2023-10-08T00:22:29;2.17;;;0.93;;
82292;SDS011;71892;14.836;105.234;2023-10-08T00:25:01;2.40;;;1.00;;
82292;SDS011;71892;14.836;105.234;2023-10-08T00:32:39;3.65;;;0.93;;
82292;SDS011;71892;14.836;105.234;2023-10-08T00:35:05;9.32;;;1.25;;
82292;SDS011;71892;14.836;105.234;2023-10-08T00:37:32;9.57;;;1.33;;
82292;SDS011;71892;14.836;105.234;2023-10-08T00:39:59;2.97;;;1.50;;
82292;SDS011;71892;14.836;105.234;2023-10-08T00:42:30;3.33;;;1.10;;
82292;SDS011;71892;14.836;105.234;2023-10-08T00:44:56;7.75;;;1.48;;
82292;SDS011;71892;14.836;105.234;2023-10-08T00:47:26;4.93;;;1.20;;
82292;SDS011;71892;14.836;105.234;2023-10-08T00:49:53;5.53;;;1.20;;
82292;SDS011;71892;14.836;105.234;2023-10-08T00:52:29;6.57;;;1.50;;
82292;SDS011;71892;14.836;105.234;2023-10-08T00:55:05;5.22;;;1.42;;
82292;SDS011;71892;14.836;105.234;2023-10-08T00:57:56;5.38;;;1.00;;
82292;SDS011;71892;14.836;105.234;2023-10-08T01:00:33;2.75;;;0.90;;
82292;SDS011;71892;14.836;105.234;2023-10-08T01:03:05;3.72;;;0.90;;
82292;SDS011;71892;14.836;105.234;2023-10-08T01:05:40;7.57;;;0.80;;
82292;SDS011;71892;14.836;105.234;2023-10-08T01:08:12;2.92;;;1.05;;
82292;SDS011;71892;14.836;105.234;2023-10-08T01:10:47;2.85;;;0.93;;
82292;SDS011;71892;14.836;105.234;2023-10-08T01:13:23;4.38;;;0.80;;
82292;SDS011;71892;14.836;105.234;2023-10-08T01:15:52;3.15;;;0.90;;
82292;SDS011;71892;14.836;105.234;2023-10-08T01:18:20;4.32;;;0.95;;
82292;SDS011;71892;14.836;105.234;2023-10-08T01:20:56;5.97;;;1.10;;
82292;SDS011;71892;14.836;105.234;2023-10-08T01:23:30;2.80;;;0.80;;
82292;SDS011;71892;14.836;105.234;2023-10-08T01:25:57;4.68;;;1.05;;
82292;SDS011;71892;14.836;105.234;2023-10-08T01:28:36;3.03;;;1.20;;
82292;SDS011;71892;14.836;105.234;2023-10-08T01:31:02;3.10;;;0.90;;
82292;SDS011;71892;14.836;105.234;2023-10-08T01:33:32;2.47;;;1.05;;
82292;SDS011;71892;14.836;105.234;2023-10-08T01:36:19;1.75;;;0.75;;
82292;SDS011;71892;14.836;105.234;2023-10-08T01:38:48;3.65;;;0.93;;
82292;SDS011;71892;14.836;105.234;2023-10-08T01:41:14;2.25;;;0.68;;
82292;SDS011;71892;14.836;105.234;2023-10-08T01:43:47;1.65;;;0.70;;
82292;SDS011;71892;14.836;105.234;2023-10-08T01:46:17;2.53;;;0.70;;
82292;SDS011;71892;14.836;105.234;2023-10-08T01:48:47;1.55;;;0.57;;
82292;SDS011;71892;14.836;105.234;2023-10-08T01:51:19;3.67;;;0.88;;
82292;SDS011;71892;14.836;105.234;2023-10-08T01:53:53;2.15;;;0.70;;
82292;SDS011;71892;14.836;105.234;2023-10-08T01:56:23;3.22;;;0.82;;
82292;SDS011;71892;14.836;105.234;2023-10-08T01:58:50;1.90;;;0.70;;
82292;SDS011;71892;14.836;105.234;2023-10-08T02:01:20;3.25;;;0.90;;
82292;SDS011;71892;14.836;105.234;2023-10-08T02:03:46;2.13;;;0.88;;
82292;SDS011;71892;14.836;105.234;2023-10-08T02:06:13;2.25;;;1.10;;
82292;SDS011;71892;14.836;105.234;2023-10-08T02:08:40;3.28;;;0.80;;
82292;SDS011;71892;14.836;105.234;2023-10-08T02:11:06;4.47;;;0.63;;
82292;SDS011;71892;14.836;105.234;2023-10-08T02:13:34;4.20;;;0.90;;
82292;SDS011;71892;14.836;105.234;2023-10-08T02:16:00;2.00;;;0.68;;
82292;SDS011;71892;14.836;105.234;2023-10-08T02:18:27;3.60;;;0.80;;
82292;SDS011;71892;14.836;105.234;2023-10-08T02:20:54;2.40;;;1.00;;
82292;SDS011;71892;14.836;105.234;2023-10-08T02:23:21;3.67;;;0.70;;
82292;SDS011;71892;14.836;105.234;2023-10-08T02:25:47;2.60;;;0.90;;
82292;SDS011;71892;14.836;105.234;2023-10-08T02:28:14;6.60;;;0.93;;
82292;SDS011;71892;14.836;105.234;2023-10-08T02:30:41;1.25;;;0.60;;
82292;SDS011;71892;14.836;105.234;2023-10-08T02:33:08;2.92;;;0.70;;
82292;SDS011;71892;14.836;105.234;2023-10-08T02:35:41;5.03;;;0.80;;
82292;SDS011;71892;14.836;105.234;2023-10-08T02:38:12;4.05;;;1.02;;
82292;SDS011;71892;14.836;105.234;2023-10-08T02:40:41;3.72;;;0.77;;
82292;SDS011;71892;14.836;105.234;2023-10-08T02:43:14;3.42;;;0.90;;
82292;SDS011;71892;14.836;105.234;2023-10-08T02:45:42;2.38;;;0.68;;
82292;SDS011;71892;14.836;105.234;2023-10-08T02:48:12;4.07;;;0.60;;
82292;SDS011;71892;14.836;105.234;2023-10-08T02:50:40;1.92;;;0.70;;
82292;SDS011;71892;14.836;105.234;2023-10-08T02:53:07;3.03;;;0.73;;
82292;SDS011;71892;14.836;105.234;2023-10-08T02:55:38;2.25;;;0.65;;
82292;SDS011;71892;14.836;105.234;2023-10-08T02:58:14;2.50;;;0.65;;
82292;SDS011;71892;14.836;105.234;2023-10-08T03:00:44;3.03;;;0.80;;
82292;SDS011;71892;14.836;105.234;2023-10-08T03:03:16;2.00;;;0.60;;
82292;SDS011;71892;14.836;105.234;2023-10-08T03:05:44;2.13;;;0.82;;
82292;SDS011;71892;14.836;105.234;2023-10-08T03:08:13;3.53;;;0.90;;
82292;SDS011;71892;14.836;105.234;2023-10-08T03:10:44;4.05;;;0.75;;
82292;SDS011;71892;14.836;105.234;2023-10-08T03:13:11;2.42;;;0.70;;
82292;SDS011;71892;14.836;105.234;2023-10-08T03:15:40;1.92;;;0.50;;
82292;SDS011;71892;14.836;105.234;2023-10-08T03:18:21;2.33;;;0.70;;
82292;SDS011;71892;14.836;105.234;2023-10-08T03:20:47;4.00;;;0.93;;
82292;SDS011;71892;14.836;105.234;2023-10-08T03:23:15;3.20;;;0.68;;
82292;SDS011;71892;14.836;105.234;2023-10-08T03:25:52;3.75;;;1.15;;
82292;SDS011;71892;14.836;105.234;2023-10-08T03:28:36;3.17;;;0.70;;
82292;SDS011;71892;14.836;105.234;2023-10-08T03:31:06;5.25;;;1.15;;
82292;SDS011;71892;14.836;105.234;2023-10-08T03:33:43;1.83;;;0.80;;
82292;SDS011;71892;14.836;105.234;2023-10-08T03:36:14;2.17;;;0.70;;
82292;SDS011;71892;14.836;105.234;2023-10-08T03:38:59;3.17;;;0.60;;
82292;SDS011;71892;14.836;105.234;2023-10-08T03:41:38;2.47;;;0.80;;
82292;SDS011;71892;14.836;105.234;2023-10-08T03:44:06;1.27;;;0.50;;
82292;SDS011;71892;14.836;105.234;2023-10-08T03:46:39;3.63;;;0.80;;
82292;SDS011;71892;14.836;105.234;2023-10-08T03:49:11;2.65;;;0.88;;
82292;SDS011;71892;14.836;105.234;2023-10-08T03:51:47;2.25;;;0.82;;
82292;SDS011;71892;14.836;105.234;2023-10-08T03:54:17;2.85;;;0.70;;
82292;SDS011;71892;14.836;105.234;2023-10-08T03:56:45;2.65;;;0.77;;
82292;SDS011;71892;14.836;105.234;2023-10-08T03:59:16;2.67;;;0.77;;
82292;SDS011;71892;14.836;105.234;2023-10-08T04:01:55;3.55;;;0.73;;
82292;SDS011;71892;14.836;105.234;2023-10-08T04:04:45;2.60;;;0.93;;
82292;SDS011;71892;14.836;105.234;2023-10-08T04:07:17;2.42;;;0.80;;
82292;SDS011;71892;14.836;105.234;2023-10-08T04:09:52;10.50;;;1.40;;
82292;SDS011;71892;14.836;105.234;2023-10-08T04:12:38;2.47;;;0.77;;
82292;SDS011;71892;14.836;105.234;2023-10-08T04:15:13;2.47;;;1.00;;
82292;SDS011;71892;14.836;105.234;2023-10-08T04:17:42;2.88;;;1.00;;
82292;SDS011;71892;14.836;105.234;2023-10-08T04:20:16;2.72;;;1.00;;
82292;SDS011;71892;14.836;105.234;2023-10-08T04:23:02;4.18;;;0.93;;
82292;SDS011;71892;14.836;105.234;2023-10-08T04:25:30;3.75;;;0.90;;
82292;SDS011;71892;14.836;105.234;2023-10-08T04:27:58;6.78;;;1.00;;
82292;SDS011;71892;14.836;105.234;2023-10-08T04:30:26;5.35;;;1.20;;
82292;SDS011;71892;14.836;105.234;2023-10-08T04:32:59;6.00;;;1.30;;
82292;SDS011;71892;14.836;105.234;2023-10-08T04:35:33;7.40;;;1.42;;
82292;SDS011;71892;14.836;105.234;2023-10-08T04:38:21;5.05;;;1.20;;
82292;SDS011;71892;14.836;105.234;2023-10-08T04:40:51;6.47;;;1.50;;
82292;SDS011;71892;14.836;105.234;2023-10-08T04:43:19;2.63;;;1.20;;
82292;SDS011;71892;14.836;105.234;2023-10-08T04:48:26;6.95;;;1.48;;
82292;SDS011;71892;14.836;105.234;2023-10-08T04:50:58;3.55;;;1.30;;
82292;SDS011;71892;14.836;105.234;2023-10-08T04:53:33;2.85;;;1.15;;
82292;SDS011;71892;14.836;105.234;2023-10-08T04:56:09;4.32;;;1.13;;
82292;SDS011;71892;14.836;105.234;2023-10-08T04:58:43;4.22;;;1.50;;
82292;SDS011;71892;14.836;105.234;2023-10-08T05:01:14;5.03;;;1.13;;
82292;SDS011;71892;14.836;105.234;2023-10-08T05:03:52;4.35;;;1.20;;
82292;SDS011;71892;14.836;105.234;2023-10-08T05:06:27;2.47;;;1.10;;
82292;SDS011;71892;14.836;105.234;2023-10-08T05:09:18;3.80;;;1.27;;
82292;SDS011;71892;14.836;105.234;2023-10-08T05:11:45;6.35;;;1.40;;
82292;SDS011;71892;14.836;105.234;2023-10-08T05:14:31;3.55;;;1.58;;
82292;SDS011;71892;14.836;105.234;2023-10-08T05:16:58;3.15;;;1.55;;
82292;SDS011;71892;14.836;105.234;2023-10-08T05:22:03;3.50;;;1.33;;
82292;SDS011;71892;14.836;105.234;2023-10-08T05:24:48;3.75;;;1.20;;
82292;SDS011;71892;14.836;105.234;2023-10-08T05:27:39;4.50;;;1.40;;
82292;SDS011;71892;14.836;105.234;2023-10-08T05:30:13;3.63;;;1.40;;
82292;SDS011;71892;14.836;105.234;2023-10-08T05:32:43;3.33;;;1.38;;
82292;SDS011;71892;14.836;105.234;2023-10-08T05:35:31;5.53;;;1.20;;
82292;SDS011;71892;14.836;105.234;2023-10-08T05:38:15;3.72;;;1.25;;
82292;SDS011;71892;14.836;105.234;2023-10-08T05:40:49;3.63;;;1.40;;
82292;SDS011;71892;14.836;105.234;2023-10-08T05:43:29;3.65;;;2.00;;
82292;SDS011;71892;14.836;105.234;2023-10-08T05:46:06;4.20;;;1.35;;
82292;SDS011;71892;14.836;105.234;2023-10-08T05:48:54;4.53;;;1.35;;
82292;SDS011;71892;14.836;105.234;2023-10-08T05:51:28;3.15;;;1.30;;
82292;SDS011;71892;14.836;105.234;2023-10-08T05:54:15;3.65;;;1.40;;
82292;SDS011;71892;14.836;105.234;2023-10-08T05:56:58;3.72;;;1.65;;
82292;SDS011;71892;14.836;105.234;2023-10-08T05:59:38;4.95;;;1.90;;
82292;SDS011;71892;14.836;105.234;2023-10-08T06:05:02;3.85;;;1.80;;
82292;SDS011;71892;14.836;105.234;2023-10-08T06:07:42;5.07;;;1.55;;
82292;SDS011;71892;14.836;105.234;2023-10-08T06:13:09;5.00;;;1.98;;
82292;SDS011;71892;14.836;105.234;2023-10-08T06:15:39;3.70;;;1.67;;
82292;SDS011;71892;14.836;105.234;2023-10-08T06:18:13;5.40;;;1.92;;
82292;SDS011;71892;14.836;105.234;2023-10-08T06:20:44;3.67;;;1.50;;
82292;SDS011;71892;14.836;105.234;2023-10-08T06:23:20;4.55;;;1.52;;
82292;SDS011;71892;14.836;105.234;2023-10-08T06:25:51;5.00;;;2.10;;
82292;SDS011;71892;14.836;105.234;2023-10-08T06:28:24;5.03;;;1.58;;
82292;SDS011;71892;14.836;105.234;2023-10-08T06:30:53;3.95;;;1.48;;
82292;SDS011;71892;14.836;105.234;2023-10-08T06:33:25;4.43;;;1.92;;
82292;SDS011;71892;14.836;105.234;2023-10-08T06:35:59;3.90;;;1.80;;
82292;SDS011;71892;14.836;105.234;2023-10-08T06:38:39;3.88;;;1.75;;
82292;SDS011;71892;14.836;105.234;2023-10-08T06:41:08;6.70;;;2.10;;
82292;SDS011;71892;14.836;105.234;2023-10-08T06:43:46;3.80;;;1.83;;
82292;SDS011;71892;14.836;105.234;2023-10-08T06:46:15;4.30;;;1.80;;
82292;SDS011;71892;14.836;105.234;2023-10-08T06:48:45;4.00;;;2.05;;
82292;SDS011;71892;14.836;105.234;2023-10-08T06:51:14;4.57;;;1.85;;
82292;SDS011;71892;14.836;105.234;2023-10-08T06:53:45;3.55;;;1.70;;
82292;SDS011;71892;14.836;105.234;2023-10-08T06:56:16;3.90;;;1.75;;
82292;SDS011;71892;14.836;105.234;2023-10-08T06:58:45;5.03;;;1.70;;
82292;SDS011;71892;14.836;105.234;2023-10-08T07:01:21;4.00;;;2.15;;
82292;SDS011;71892;14.836;105.234;2023-10-08T07:03:56;6.90;;;2.10;;
82292;SDS011;71892;14.836;105.234;2023-10-08T07:06:29;3.55;;;1.83;;
82292;SDS011;71892;14.836;105.234;2023-10-08T07:09:02;10.40;;;1.70;;
82292;SDS011;71892;14.836;105.234;2023-10-08T07:11:39;6.43;;;1.92;;
82292;SDS011;71892;14.836;105.234;2023-10-08T07:14:10;3.30;;;1.60;;
82292;SDS011;71892;14.836;105.234;2023-10-08T07:16:39;5.18;;;1.92;;
82292;SDS011;71892;14.836;105.234;2023-10-08T07:19:07;3.95;;;2.20;;
82292;SDS011;71892;14.836;105.234;2023-10-08T07:21:44;4.40;;;2.03;;
82292;SDS011;71892;14.836;105.234;2023-10-08T07:24:12;5.25;;;1.80;;
82292;SDS011;71892;14.836;105.234;2023-10-08T07:26:47;3.75;;;1.80;;
82292;SDS011;71892;14.836;105.234;2023-10-08T07:29:15;5.72;;;2.10;;
82292;SDS011;71892;14.836;105.234;2023-10-08T07:31:43;7.63;;;2.03;;
82292;SDS011;71892;14.836;105.234;2023-10-08T07:34:18;3.60;;;1.80;;
82292;SDS011;71892;14.836;105.234;2023-10-08T07:36:49;6.50;;;2.03;;
82292;SDS011;71892;14.836;105.234;2023-10-08T07:39:20;5.60;;;2.53;;
82292;SDS011;71892;14.836;105.234;2023-10-08T07:41:51;4.82;;;1.80;;
82292;SDS011;71892;14.836;105.234;2023-10-08T07:44:22;6.07;;;1.90;;
82292;SDS011;71892;14.836;105.234;2023-10-08T07:46:50;4.95;;;2.22;;
82292;SDS011;71892;14.836;105.234;2023-10-08T07:49:17;7.22;;;3.20;;
82292;SDS011;71892;14.836;105.234;2023-10-08T07:51:44;3.88;;;2.00;;
82292;SDS011;71892;14.836;105.234;2023-10-08T07:54:20;3.90;;;2.10;;
82292;SDS011;71892;14.836;105.234;2023-10-08T07:56:48;3.70;;;1.80;;
82292;SDS011;71892;14.836;105.234;2023-10-08T07:59:25;3.17;;;1.90;;
82292;SDS011;71892;14.836;105.234;2023-10-08T08:01:52;4.78;;;2.03;;
82292;SDS011;71892;14.836;105.234;2023-10-08T08:04:20;5.32;;;1.92;;
82292;SDS011;71892;14.836;105.234;2023-10-08T08:06:51;4.53;;;1.88;;
82292;SDS011;71892;14.836;105.234;2023-10-08T08:09:18;5.40;;;2.47;;
82292;SDS011;71892;14.836;105.234;2023-10-08T08:11:46;3.03;;;1.50;;
82292;SDS011;71892;14.836;105.234;2023-10-08T08:14:13;3.17;;;1.70;;
82292;SDS011;71892;14.836;105.234;2023-10-08T08:16:49;4.85;;;1.92;;
82292;SDS011;71892;14.836;105.234;2023-10-08T08:19:16;5.72;;;2.03;;
82292;SDS011;71892;14.836;105.234;2023-10-08T08:21:52;3.83;;;1.80;;
82292;SDS011;71892;14.836;105.234;2023-10-08T08:24:20;3.97;;;1.90;;
82292;SDS011;71892;14.836;105.234;2023-10-08T08:27:01;4.45;;;1.90;;
82292;SDS011;71892;14.836;105.234;2023-10-08T08:29:37;5.28;;;2.13;;
82292;SDS011;71892;14.836;105.234;2023-10-08T08:32:10;4.35;;;1.98;;
82292;SDS011;71892;14.836;105.234;2023-10-08T08:34:47;4.65;;;2.00;;
82292;SDS011;71892;14.836;105.234;2023-10-08T08:37:19;3.38;;;1.85;;
82292;SDS011;71892;14.836;105.234;2023-10-08T08:39:51;6.75;;;2.03;;
82292;SDS011;71892;14.836;105.234;2023-10-08T08:42:19;5.70;;;2.05;;
82292;SDS011;71892;14.836;105.234;2023-10-08T08:44:52;4.43;;;2.03;;
82292;SDS011;71892;14.836;105.234;2023-10-08T08:47:23;5.05;;;1.67;;
82292;SDS011;71892;14.836;105.234;2023-10-08T08:49:53;4.80;;;2.10;;
82292;SDS011;71892;14.836;105.234;2023-10-08T08:54:48;5.80;;;2.85;;
82292;SDS011;71892;14.836;105.234;2023-10-08T08:57:15;5.70;;;2.40;;
82292;SDS011;71892;14.836;105.234;2023-10-08T08:59:49;3.42;;;1.98;;
82292;SDS011;71892;14.836;105.234;2023-10-08T09:02:19;5.63;;;1.90;;
82292;SDS011;71892;14.836;105.234;2023-10-08T09:04:47;4.47;;;2.25;;
82292;SDS011;71892;14.836;105.234;2023-10-08T09:07:20;4.63;;;2.45;;
82292;SDS011;71892;14.836;105.234;2023-10-08T09:09:49;6.63;;;2.45;;
82292;SDS011;71892;14.836;105.234;2023-10-08T09:12:16;5.93;;;2.63;;
82292;SDS011;71892;14.836;105.234;2023-10-08T09:14:43;5.90;;;2.22;;
82292;SDS011;71892;14.836;105.234;2023-10-08T09:17:13;5.70;;;2.35;;
82292;SDS011;71892;14.836;105.234;2023-10-08T09:19:40;3.92;;;2.10;;
82292;SDS011;71892;14.836;105.234;2023-10-08T09:22:08;5.20;;;2.78;;
82292;SDS011;71892;14.836;105.234;2023-10-08T09:24:37;6.57;;;2.75;;
82292;SDS011;71892;14.836;105.234;2023-10-08T09:27:06;5.20;;;2.55;;
82292;SDS011;71892;14.836;105.234;2023-10-08T09:29:34;5.10;;;2.10;;
82292;SDS011;71892;14.836;105.234;2023-10-08T09:32:10;4.85;;;2.08;;
82292;SDS011;71892;14.836;105.234;2023-10-08T09:34:48;6.50;;;2.40;;
82292;SDS011;71892;14.836;105.234;2023-10-08T09:37:18;6.07;;;2.55;;
82292;SDS011;71892;14.836;105.234;2023-10-08T09:39:48;4.10;;;1.95;;
82292;SDS011;71892;14.836;105.234;2023-10-08T09:42:17;4.03;;;2.25;;
82292;SDS011;71892;14.836;105.234;2023-10-08T09:44:47;10.30;;;3.20;;
82292;SDS011;71892;14.836;105.234;2023-10-08T09:47:15;5.70;;;2.72;;
82292;SDS011;71892;14.836;105.234;2023-10-08T09:50:26;5.75;;;2.65;;
82292;SDS011;71892;14.836;105.234;2023-10-08T09:52:52;8.55;;;4.05;;
82292;SDS011;71892;14.836;105.234;2023-10-08T09:55:55;7.38;;;2.83;;
82292;SDS011;71892;14.836;105.234;2023-10-08T09:58:22;9.07;;;3.33;;
82292;SDS011;71892;14.836;105.234;2023-10-08T10:00:51;8.75;;;2.88;;
82292;SDS011;71892;14.836;105.234;2023-10-08T10:03:21;6.90;;;3.55;;
82292;SDS011;71892;14.836;105.234;2023-10-08T10:05:49;6.35;;;3.72;;
82292;SDS011;71892;14.836;105.234;2023-10-08T10:08:23;6.18;;;3.15;;
82292;SDS011;71892;14.836;105.234;2023-10-08T10:10:59;10.65;;;6.15;;
82292;SDS011;71892;14.836;105.234;2023-10-08T10:13:29;8.93;;;5.28;;
82292;SDS011;71892;14.836;105.234;2023-10-08T10:16:00;12.32;;;6.80;;
82292;SDS011;71892;14.836;105.234;2023-10-08T10:18:27;8.07;;;5.45;;
82292;SDS011;71892;14.836;105.234;2023-10-08T10:31:41;8.55;;;4.30;;
82292;SDS011;71892;14.836;105.234;2023-10-08T10:34:19;8.75;;;4.15;;
82292;SDS011;71892;14.836;105.234;2023-10-08T10:36:53;10.13;;;4.43;;
82292;SDS011;71892;14.836;105.234;2023-10-08T10:39:22;17.70;;;10.70;;
82292;SDS011;71892;14.836;105.234;2023-10-08T10:41:53;7.32;;;4.55;;
82292;SDS011;71892;14.836;105.234;2023-10-08T10:44:27;6.38;;;4.47;;
82292;SDS011;71892;14.836;105.234;2023-10-08T10:46:57;6.95;;;4.60;;
82292;SDS011;71892;14.836;105.234;2023-10-08T10:49:43;6.30;;;3.83;;
82292;SDS011;71892;14.836;105.234;2023-10-08T10:52:17;16.77;;;10.50;;
82292;SDS011;71892;14.836;105.234;2023-10-08T10:55:05;34.13;;;21.17;;
82292;SDS011;71892;14.836;105.234;2023-10-08T10:58:15;24.48;;;17.83;;
82292;SDS011;71892;14.836;105.234;2023-10-08T11:00:38;13.00;;;8.77;;
82292;SDS011;71892;14.836;105.234;2023-10-08T11:03:08;13.07;;;7.38;;
82292;SDS011;71892;14.836;105.234;2023-10-08T11:05:49;15.75;;;6.57;;
82292;SDS011;71892;14.836;105.234;2023-10-08T11:08:25;8.35;;;5.20;;
82292;SDS011;71892;14.836;105.234;2023-10-08T11:10:59;7.68;;;4.40;;
82292;SDS011;71892;14.836;105.234;2023-10-08T11:13:32;7.40;;;4.57;;
82292;SDS011;71892;14.836;105.234;2023-10-08T11:16:05;11.27;;;3.97;;
82292;SDS011;71892;14.836;105.234;2023-10-08T11:18:34;9.55;;;6.85;;
82292;SDS011;71892;14.836;105.234;2023-10-08T11:21:07;6.93;;;3.47;;
82292;SDS011;71892;14.836;105.234;2023-10-08T11:23:50;4.90;;;3.28;;
82292;SDS011;71892;14.836;105.234;2023-10-08T11:28:58;4.75;;;2.28;;
82292;SDS011;71892;14.836;105.234;2023-10-08T11:31:31;5.68;;;2.65;;
82292;SDS011;71892;14.836;105.234;2023-10-08T11:36:33;11.45;;;3.65;;
82292;SDS011;71892;14.836;105.234;2023-10-08T11:39:14;9.70;;;3.13;;
82292;SDS011;71892;14.836;105.234;2023-10-08T11:41:59;8.23;;;3.03;;
82292;SDS011;71892;14.836;105.234;2023-10-08T11:44:32;7.82;;;3.47;;
82292;SDS011;71892;14.836;105.234;2023-10-08T11:47:02;7.90;;;3.47;;
82292;SDS011;71892;14.836;105.234;2023-10-08T11:49:42;11.02;;;2.47;;
82292;SDS011;71892;14.836;105.234;2023-10-08T11:52:35;8.88;;;2.72;;
82292;SDS011;71892;14.836;105.234;2023-10-08T11:55:10;4.43;;;2.20;;
82292;SDS011;71892;14.836;105.234;2023-10-08T11:57:45;4.32;;;2.40;;
82292;SDS011;71892;14.836;105.234;2023-10-08T12:00:17;5.15;;;1.98;;
82292;SDS011;71892;14.836;105.234;2023-10-08T12:02:50;10.50;;;2.90;;
82292;SDS011;71892;14.836;105.234;2023-10-08T12:05:20;6.20;;;2.35;;
82292;SDS011;71892;14.836;105.234;2023-10-08T12:07:52;5.32;;;2.40;;
82292;SDS011;71892;14.836;105.234;2023-10-08T12:10:23;7.28;;;4.18;;
82292;SDS011;71892;14.836;105.234;2023-10-08T12:12:51;4.82;;;2.60;;
82292;SDS011;71892;14.836;105.234;2023-10-08T12:15:24;3.88;;;1.88;;
82292;SDS011;71892;14.836;105.234;2023-10-08T12:17:59;6.35;;;2.15;;
82292;SDS011;71892;14.836;105.234;2023-10-08T12:20:41;5.68;;;1.90;;
82292;SDS011;71892;14.836;105.234;2023-10-08T12:23:12;4.13;;;1.92;;
82292;SDS011;71892;14.836;105.234;2023-10-08T12:25:56;5.88;;;2.45;;
82292;SDS011;71892;14.836;105.234;2023-10-08T12:28:23;4.93;;;1.90;;
82292;SDS011;71892;14.836;105.234;2023-10-08T12:30:50;6.65;;;1.85;;
82292;SDS011;71892;14.836;105.234;2023-10-08T12:33:21;10.23;;;2.08;;
82292;SDS011;71892;14.836;105.234;2023-10-08T12:35:51;6.38;;;2.30;;
82292;SDS011;71892;14.836;105.234;2023-10-08T12:38:21;5.55;;;2.25;;
82292;SDS011;71892;14.836;105.234;2023-10-08T12:40:49;5.68;;;1.92;;
82292;SDS011;71892;14.836;105.234;2023-10-08T12:43:19;6.35;;;2.20;;
82292;SDS011;71892;14.836;105.234;2023-10-08T12:45:52;5.55;;;2.17;;
82292;SDS011;71892;14.836;105.234;2023-10-08T12:48:22;5.13;;;2.35;;
82292;SDS011;71892;14.836;105.234;2023-10-08T12:50:49;4.30;;;2.15;;
82292;SDS011;71892;14.836;105.234;2023-10-08T12:53:22;3.85;;;1.95;;
82292;SDS011;71892;14.836;105.234;2023-10-08T12:55:55;6.55;;;1.80;;
82292;SDS011;71892;14.836;105.234;2023-10-08T12:58:23;4.72;;;1.58;;
82292;SDS011;71892;14.836;105.234;2023-10-08T13:00:55;6.07;;;3.28;;
82292;SDS011;71892;14.836;105.234;2023-10-08T13:03:29;17.58;;;7.43;;
82292;SDS011;71892;14.836;105.234;2023-10-08T13:05:58;16.08;;;5.75;;
82292;SDS011;71892;14.836;105.234;2023-10-08T13:08:32;6.15;;;2.58;;
82292;SDS011;71892;14.836;105.234;2023-10-08T13:11:01;5.15;;;1.73;;
82292;SDS011;71892;14.836;105.234;2023-10-08T13:13:29;4.57;;;1.80;;
82292;SDS011;71892;14.836;105.234;2023-10-08T13:15:57;4.78;;;2.35;;
82292;SDS011;71892;14.836;105.234;2023-10-08T13:18:25;3.53;;;1.45;;
82292;SDS011;71892;14.836;105.234;2023-10-08T13:20:52;3.85;;;1.92;;
82292;SDS011;71892;14.836;105.234;2023-10-08T13:23:19;3.28;;;1.52;;
82292;SDS011;71892;14.836;105.234;2023-10-08T13:28:20;5.95;;;2.22;;
82292;SDS011;71892;14.836;105.234;2023-10-08T13:30:48;4.50;;;1.85;;
82292;SDS011;71892;14.836;105.234;2023-10-08T13:33:21;4.10;;;1.65;;
82292;SDS011;71892;14.836;105.234;2023-10-08T13:35:48;4.15;;;2.10;;
82292;SDS011;71892;14.836;105.234;2023-10-08T13:38:18;4.85;;;2.00;;
82292;SDS011;71892;14.836;105.234;2023-10-08T13:40:48;3.63;;;1.83;;
82292;SDS011;71892;14.836;105.234;2023-10-08T13:43:33;4.72;;;2.00;;
82292;SDS011;71892;14.836;105.234;2023-10-08T13:46:01;4.85;;;1.85;;
82292;SDS011;71892;14.836;105.234;2023-10-08T13:48:44;3.38;;;1.70;;
82292;SDS011;71892;14.836;105.234;2023-10-08T13:51:13;4.95;;;1.95;;
82292;SDS011;71892;14.836;105.234;2023-10-08T13:53:51;4.57;;;2.35;;
82292;SDS011;71892;14.836;105.234;2023-10-08T13:56:25;4.10;;;1.90;;
82292;SDS011;71892;14.836;105.234;2023-10-08T13:58:56;4.53;;;2.20;;
82292;SDS011;71892;14.836;105.234;2023-10-08T14:01:37;6.68;;;2.20;;
82292;SDS011;71892;14.836;105.234;2023-10-08T14:04:08;7.90;;;2.22;;
82292;SDS011;71892;14.836;105.234;2023-10-08T14:06:35;7.18;;;2.38;;
82292;SDS011;71892;14.836;105.234;2023-10-08T14:09:05;6.60;;;2.50;;
82292;SDS011;71892;14.836;105.234;2023-10-08T14:11:34;4.93;;;2.05;;
82292;SDS011;71892;14.836;105.234;2023-10-08T14:14:01;9.10;;;2.40;;
82292;SDS011;71892;14.836;105.234;2023-10-08T14:16:36;7.10;;;2.13;;
82292;SDS011;71892;14.836;105.234;2023-10-08T14:19:10;3.38;;;1.83;;
82292;SDS011;71892;14.836;105.234;2023-10-08T14:21:41;4.40;;;1.92;;
82292;SDS011;71892;14.836;105.234;2023-10-08T14:24:25;4.40;;;1.90;;
82292;SDS011;71892;14.836;105.234;2023-10-08T14:26:56;5.03;;;2.85;;
82292;SDS011;71892;14.836;105.234;2023-10-08T14:29:31;4.97;;;2.85;;
82292;SDS011;71892;14.836;105.234;2023-10-08T14:32:00;5.00;;;2.33;;
82292;SDS011;71892;14.836;105.234;2023-10-08T14:34:26;5.43;;;2.40;;
82292;SDS011;71892;14.836;105.234;2023-10-08T14:37:11;11.57;;;2.63;;
82292;SDS011;71892;14.836;105.234;2023-10-08T14:39:56;4.63;;;2.40;;
82292;SDS011;71892;14.836;105.234;2023-10-08T14:42:40;6.70;;;2.25;;
82292;SDS011;71892;14.836;105.234;2023-10-08T14:45:25;4.20;;;1.90;;
82292;SDS011;71892;14.836;105.234;2023-10-08T14:47:53;6.57;;;2.42;;
82292;SDS011;71892;14.836;105.234;2023-10-08T14:50:24;4.80;;;2.38;;
82292;SDS011;71892;14.836;105.234;2023-10-08T14:52:58;5.45;;;2.22;;
82292;SDS011;71892;14.836;105.234;2023-10-08T14:55:31;4.22;;;1.80;;
82292;SDS011;71892;14.836;105.234;2023-10-08T14:58:01;3.33;;;1.63;;
82292;SDS011;71892;14.836;105.234;2023-10-08T15:00:34;3.80;;;1.80;;
82292;SDS011;71892;14.836;105.234;2023-10-08T15:03:01;3.30;;;1.67;;
82292;SDS011;71892;14.836;105.234;2023-10-08T15:05:28;8.02;;;1.77;;
82292;SDS011;71892;14.836;105.234;2023-10-08T15:07:56;3.97;;;2.00;;
82292;SDS011;71892;14.836;105.234;2023-10-08T15:10:23;4.47;;;2.05;;
82292;SDS011;71892;14.836;105.234;2023-10-08T15:12:50;3.97;;;1.75;;
82292;SDS011;71892;14.836;105.234;2023-10-08T15:15:18;3.65;;;1.70;;
82292;SDS011;71892;14.836;105.234;2023-10-08T15:17:45;6.43;;;2.60;;
82292;SDS011;71892;14.836;105.234;2023-10-08T15:20:15;9.00;;;2.92;;
82292;SDS011;71892;14.836;105.234;2023-10-08T15:22:45;5.22;;;2.25;;
82292;SDS011;71892;14.836;105.234;2023-10-08T15:25:13;4.07;;;2.00;;
82292;SDS011;71892;14.836;105.234;2023-10-08T15:27:43;6.05;;;1.88;;